Time;durP1;ratioP1;P1;durP2;ratioP2;P2;SDS_P1;SDS_P2;PMS_P1;PMS_P2;Temp;Humidity;BMP_temperature;BMP_pressure;BME280_temperature;BME280_humidity;BME280_pressure;Samples;Min_cycle;Max_cycle;Signal;HPM_P1;HPM_P2
2023/09/06 00:01:08;;;;;;;;;;;;;;;-144.99;100.00;52187.19;4982353;28;19979;-60
2023/09/06 00:03:36;;;;;;;;;;;;;;;-144.99;100.00;52191.28;4987833;28;20099;-60
2023/09/06 00:06:03;;;;;;;;;;;;;;;-144.99;100.00;52183.13;4985450;28;20000;-59
2023/09/06 00:08:34;;;;;;;;;;;;;;;-144.99;100.00;52158.66;4987706;28;19947;-59
2023/09/06 00:11:04;;;;;;;;;;;;;;;-144.99;100.00;52183.13;4990062;28;20018;-59
2023/09/06 00:13:32;;;;;;;;;;;;;;;-144.99;100.00;52195.34;4989972;28;20004;-59
2023/09/06 00:15:58;;;;;;;;;;;;;;;-144.99;100.00;52205.53;4987917;28;20299;-59
2023/09/06 00:18:25;;;;;;;;;;;;;;;-144.99;100.00;52162.75;4990961;28;19999;-59
2023/09/06 00:20:51;;;;;;;;;;;;;;;-144.99;100.00;52174.97;4990387;28;19984;-59
2023/09/06 00:23:20;;;;;;;;;;;;;;;-144.99;100.00;52205.53;4989353;28;19958;-59
2023/09/06 00:25:46;;;;;;;;;;;;;;;-144.99;100.00;52187.19;4983799;28;19950;-60
2023/09/06 00:28:14;;;;;;;;;;;;;;;-144.99;100.00;52205.53;4991532;28;19943;-59
2023/09/06 00:30:44;;;;;;;;;;;;;;;-144.99;100.00;52211.66;4984973;28;20375;-59
2023/09/06 00:33:11;;;;;;;;;;;;;;;-144.99;100.00;52217.78;4988197;28;20001;-62
2023/09/06 00:35:38;;;;;;;;;;;;;;;-144.99;100.00;52195.34;4984405;28;19938;-62
2023/09/06 00:38:04;;;;;;;;;;;;;;;-144.99;100.00;52221.84;4981595;28;20350;-62
2023/09/06 00:40:31;;;;;;;;;;;;;;;-144.99;100.00;52211.66;4990844;28;20465;-64
2023/09/06 00:42:59;;;;;;;;;;;;;;;-144.99;100.00;52211.66;4985499;28;20089;-60
2023/09/06 00:45:29;;;;;;;;;;;;;;;-144.99;100.00;52223.88;4987831;28;20039;-63
2023/09/06 00:47:56;;;;;;;;;;;;;;;-144.99;100.00;52191.28;4990995;28;19964;-64
2023/09/06 00:50:22;;;;;;;;;;;;;;;-144.99;100.00;52207.59;4985957;28;20354;-64
2023/09/06 00:52:50;;;;;;;;;;;;;;;-144.99;100.00;52197.41;4989563;28;19965;-63
2023/09/06 00:55:19;;;;;;;;;;;;;;;-144.99;100.00;52179.06;4986745;28;20263;-63
2023/09/06 00:57:45;;;;;;;;;;;;;;;-144.99;100.00;52203.50;4983728;28;20123;-63
2023/09/06 01:00:15;;;;;;;;;;;;;;;-144.99;100.00;52199.44;4990197;28;19949;-63
2023/09/06 01:02:43;;;;;;;;;;;;;;;-144.99;100.00;52223.88;4980144;28;19957;-64
2023/09/06 01:05:09;;;;;;;;;;;;;;;-144.99;100.00;52248.34;4983288;28;19936;-64
2023/09/06 01:07:37;;;;;;;;;;;;;;;-144.99;100.00;52166.81;4986728;28;19965;-64
2023/09/06 01:10:05;;;;;;;;;;;;;;;-144.99;100.00;52187.19;4978139;28;20404;-64
2023/09/06 01:12:34;;;;;;;;;;;;;;;-144.99;100.00;52227.97;4975159;28;19958;-64
2023/09/06 01:15:01;;;;;;;;;;;;;;;-144.99;100.00;52211.66;4988562;28;19937;-64
2023/09/06 01:17:29;;;;;;;;;;;;;;;-144.99;100.00;52191.28;4988508;28;19992;-64
2023/09/06 01:20:05;;;;;;;;;;;;;;;-144.99;100.00;52195.34;4979046;28;20457;-64
2023/09/06 01:22:35;;;;;;;;;;;;;;;-144.99;100.00;52185.16;4985407;28;20331;-65
2023/09/06 01:25:03;;;;;;;;;;;;;;;-144.99;100.00;52197.41;4988409;28;20012;-65
2023/09/06 01:27:30;;;;;;;;;;;;;;;-144.99;100.00;52187.19;4983729;28;19992;-65
2023/09/06 01:29:56;;;;;;;;;;;;;;;-144.99;100.00;52199.44;4989663;28;20419;-65
2023/09/06 01:32:24;;;;;;;;;;;;;;;-144.99;100.00;52195.34;4984116;28;20032;-66
2023/09/06 01:34:50;;;;;;;;;;;;;;;-144.99;100.00;52227.97;4984675;28;19950;-66
2023/09/06 01:37:17;;;;;;;;;;;;;;;-144.99;100.00;52174.97;4982497;28;20021;-65
2023/09/06 01:39:43;;;;;;;;;;;;;;;-144.99;100.00;52234.09;4988658;28;20070;-65
2023/09/06 01:42:11;;;;;;;;;;;;;;;-144.99;100.00;52211.66;4988213;28;19946;-65
2023/09/06 01:44:37;;;;;;;;;;;;;;;-144.99;100.00;52215.75;4977227;28;19995;-64
2023/09/06 01:47:05;;;;;;;;;;;;;;;-144.99;100.00;52183.13;4988193;28;19991;-64
2023/09/06 01:49:31;;;;;;;;;;;;;;;-144.99;100.00;52189.25;4981886;28;19953;-66
2023/09/06 01:52:00;;;;;;;;;;;;;;;-144.99;100.00;52219.81;4989116;28;20339;-66
2023/09/06 01:54:27;;;;;;;;;;;;;;;-144.99;100.00;52203.50;4980140;28;19955;-67
2023/09/06 01:56:53;;;;;;;;;;;;;;;-144.99;100.00;52195.34;4985045;28;19947;-66
2023/09/06 01:59:21;;;;;;;;;;;;;;;-144.99;100.00;52225.94;4989074;28;20062;-66
2023/09/06 02:01:53;;;;;;;;;;;;;;;-144.99;100.00;52217.78;4983866;28;20011;-60
2023/09/06 02:04:20;;;;;;;;;;;;;;;-144.99;100.00;52217.78;4985588;28;19995;-62
2023/09/06 02:06:46;;;;;;;;;;;;;;;-144.99;100.00;52187.19;4986130;28;20044;-61
2023/09/06 02:09:13;;;;;;;;;;;;;;;-144.99;100.00;52236.13;4981489;28;19949;-59
2023/09/06 02:11:39;;;;;;;;;;;;;;;-144.99;100.00;52207.59;4988950;28;19964;-63
2023/09/06 02:14:06;;;;;;;;;;;;;;;-144.99;100.00;52211.66;4988551;28;19982;-63
2023/09/06 02:16:34;;;;;;;;;;;;;;;-144.99;100.00;52252.44;4984232;28;20027;-64
2023/09/06 02:19:00;;;;;;;;;;;;;;;-144.99;100.00;52223.88;4988233;28;19974;-64
2023/09/06 02:21:27;;;;;;;;;;;;;;;-144.99;100.00;52236.13;4987236;28;20501;-63
2023/09/06 02:23:53;;;;;;;;;;;;;;;-144.99;100.00;52211.66;4981894;28;20027;-63
2023/09/06 02:26:20;;;;;;;;;;;;;;;-144.99;100.00;52219.81;4984235;28;19930;-64
2023/09/06 02:28:46;;;;;;;;;;;;;;;-144.99;100.00;52232.03;4989077;28;20432;-64
2023/09/06 02:31:13;;;;;;;;;;;;;;;-144.99;100.00;52187.19;4983387;28;20053;-65
2023/09/06 02:33:43;;;;;;;;;;;;;;;-144.99;100.00;52236.13;4982058;28;19930;-64
2023/09/06 02:36:10;;;;;;;;;;;;;;;-144.99;100.00;52217.78;4985974;28;19975;-63
2023/09/06 02:38:36;;;;;;;;;;;;;;;-144.99;100.00;52230.00;4985194;28;20370;-63
2023/09/06 02:41:03;;;;;;;;;;;;;;;-144.99;100.00;52195.34;4984822;28;20073;-63
2023/09/06 02:43:29;;;;;;;;;;;;;;;-144.99;100.00;52211.66;4976133;28;19981;-63
2023/09/06 02:46:02;;;;;;;;;;;;;;;-144.99;100.00;52215.75;4982285;28;20642;-66
2023/09/06 02:48:29;;;;;;;;;;;;;;;-144.99;100.00;52193.31;4980134;28;19944;-64
2023/09/06 02:50:58;;;;;;;;;;;;;;;-144.99;100.00;52213.69;4984061;28;19963;-63
2023/09/06 02:53:26;;;;;;;;;;;;;;;-144.99;100.00;52195.34;4979963;28;20043;-64
2023/09/06 02:55:53;;;;;;;;;;;;;;;-144.99;100.00;52248.34;4980319;28;19976;-64
2023/09/06 02:58:23;;;;;;;;;;;;;;;-144.99;100.00;52203.50;4982088;28;20008;-64
2023/09/06 03:00:49;;;;;;;;;;;;;;;-144.99;100.00;52293.19;4987321;28;19944;-64
2023/09/06 03:03:16;;;;;;;;;;;;;;;-144.99;100.00;52238.16;4985033;28;20056;-63
2023/09/06 03:05:43;;;;;;;;;;;;;;;-144.99;100.00;52236.13;4988618;28;19956;-61
2023/09/06 03:08:12;;;;;;;;;;;;;;;-144.99;100.00;52244.28;4984195;28;20041;-61
2023/09/06 03:10:39;;;;;;;;;;;;;;;-144.99;100.00;52248.34;4986209;28;19960;-61
2023/09/06 03:13:06;;;;;;;;;;;;;;;-144.99;100.00;52211.66;4982203;28;19965;-67
2023/09/06 03:15:34;;;;;;;;;;;;;;;-144.99;100.00;52219.81;4985518;28;19966;-68
2023/09/06 03:18:01;;;;;;;;;;;;;;;-144.99;100.00;52242.22;4979530;28;19941;-67
2023/09/06 03:20:33;;;;;;;;;;;;;;;-144.99;100.00;52244.28;4984584;28;20474;-67
2023/09/06 03:23:00;;;;;;;;;;;;;;;-144.99;100.00;52227.97;4986840;28;20021;-67
2023/09/06 03:25:28;;;;;;;;;;;;;;;-144.99;100.00;52215.75;4986182;28;20041;-67
2023/09/06 03:27:59;;;;;;;;;;;;;;;-144.99;100.00;52236.13;4988482;28;19942;-65
2023/09/06 03:30:27;;;;;;;;;;;;;;;-144.99;100.00;52236.13;4985479;28;19964;-65
2023/09/06 03:32:54;;;;;;;;;;;;;;;-144.99;100.00;52244.28;4990435;28;19961;-67
2023/09/06 03:35:22;;;;;;;;;;;;;;;-144.99;100.00;52219.81;4981819;28;20006;-67
2023/09/06 03:37:49;;;;;;;;;;;;;;;-144.99;100.00;52227.97;4989725;28;19992;-66
2023/09/06 03:40:25;;;;;;;;;;;;;;;-144.99;100.00;52221.84;4985958;28;19960;-65
2023/09/06 03:42:54;;;;;;;;;;;;;;;-144.99;100.00;52223.88;4991876;28;20428;-61
2023/09/06 03:45:21;;;;;;;;;;;;;;;-144.99;100.00;52240.19;4987842;28;19948;-64
2023/09/06 03:47:48;;;;;;;;;;;;;;;-144.99;100.00;52223.88;4986345;28;19943;-64
2023/09/06 03:50:15;;;;;;;;;;;;;;;-144.99;100.00;52215.75;4985439;28;20043;-63
2023/09/06 03:52:43;;;;;;;;;;;;;;;-144.99;100.00;52236.13;5001258;23;19956;-66
2023/09/06 03:55:10;;;;;;;;;;;;;;;-144.99;100.00;52219.81;4996249;28;20191;-65
2023/09/06 03:57:37;;;;;;;;;;;;;;;-144.99;100.00;52219.81;4992637;28;20385;-65
2023/09/06 04:02:47;;;;;;;;;;;;;;;-144.99;100.00;52215.75;4993545;28;20002;-68
2023/09/06 04:05:14;;;;;;;;;;;;;;;-144.99;100.00;52215.75;4996251;28;20009;-64
2023/09/06 04:07:40;;;;;;;;;;;;;;;-144.99;100.00;52236.13;4992758;28;19968;-62
2023/09/06 04:10:16;;;;;;;;;;;;;;;-144.99;100.00;52232.03;4997824;28;19976;-62
2023/09/06 04:12:42;;;;;;;;;;;;;;;-144.99;100.00;52211.66;4984584;28;19956;-68
2023/09/06 04:15:12;;;;;;;;;;;;;;;-144.99;100.00;52215.75;4996965;28;19985;-68
2023/09/06 04:17:40;;;;;;;;;;;;;;;-144.99;100.00;52240.19;4992855;28;19985;-69
2023/09/06 04:20:19;;;;;;;;;;;;;;;-144.99;100.00;52219.81;5002333;28;19951;-68
2023/09/06 04:22:46;;;;;;;;;;;;;;;-144.99;100.00;52223.88;4992955;28;19983;-68
2023/09/06 04:25:13;;;;;;;;;;;;;;;-144.99;100.00;52232.03;4988454;28;19926;-67
2023/09/06 04:27:39;;;;;;;;;;;;;;;-144.99;100.00;52217.78;4992995;28;20460;-67
2023/09/06 04:30:08;;;;;;;;;;;;;;;-144.99;100.00;52242.22;4996712;28;20031;-67
2023/09/06 04:32:37;;;;;;;;;;;;;;;-144.99;100.00;52248.34;4987592;28;19956;-67
2023/09/06 04:35:04;;;;;;;;;;;;;;;-144.99;100.00;52244.28;4982002;28;19941;-67
2023/09/06 04:37:30;;;;;;;;;;;;;;;-144.99;100.00;52248.34;4995429;28;19941;-67
2023/09/06 04:39:57;;;;;;;;;;;;;;;-144.99;100.00;52254.47;4993233;28;20436;-67
2023/09/06 04:42:23;;;;;;;;;;;;;;;-144.99;100.00;52236.13;4991473;28;19984;-68
2023/09/06 04:44:49;;;;;;;;;;;;;;;-144.99;100.00;52248.34;4984614;28;19943;-68
2023/09/06 04:47:17;;;;;;;;;;;;;;;-144.99;100.00;52236.13;4988102;28;19973;-68
2023/09/06 04:49:45;;;;;;;;;;;;;;;-144.99;100.00;52272.81;4996013;28;19943;-67
2023/09/06 04:52:12;;;;;;;;;;;;;;;-144.99;100.00;52256.50;4995822;28;19968;-67
2023/09/06 04:54:38;;;;;;;;;;;;;;;-144.99;100.00;52248.34;4984818;28;19969;-67
2023/09/06 04:57:05;;;;;;;;;;;;;;;-144.99;100.00;52221.84;4994273;28;19946;-67
2023/09/06 04:59:36;;;;;;;;;;;;;;;-144.99;100.00;52211.66;4995999;28;20056;-64
2023/09/06 05:02:04;;;;;;;;;;;;;;;-144.99;100.00;52256.50;4997136;28;19977;-66
2023/09/06 05:04:30;;;;;;;;;;;;;;;-144.99;100.00;52197.41;4986829;28;19987;-65
2023/09/06 05:06:58;;;;;;;;;;;;;;;-144.99;100.00;52217.78;4991777;28;20279;-65
2023/09/06 05:09:24;;;;;;;;;;;;;;;-144.99;100.00;52240.19;4991555;28;19961;-65
2023/09/06 05:11:51;;;;;;;;;;;;;;;-144.99;100.00;52219.81;4993428;28;20012;-65
2023/09/06 05:14:18;;;;;;;;;;;;;;;-144.99;100.00;52205.53;4996818;28;19973;-68
2023/09/06 05:16:45;;;;;;;;;;;;;;;-144.99;100.00;52199.44;4299008;28;10020753;-70
2023/09/06 05:19:11;;;;;;;;;;;;;;;-144.99;100.00;52248.34;4983717;28;20003;-68
2023/09/06 05:21:38;;;;;;;;;;;;;;;-144.99;100.00;52205.53;4987608;28;20028;-68
2023/09/06 05:24:06;;;;;;;;;;;;;;;-144.99;100.00;52227.97;4986723;28;20021;-69
2023/09/06 05:26:33;;;;;;;;;;;;;;;-144.99;100.00;52207.59;4986724;28;19961;-69
2023/09/06 05:28:59;;;;;;;;;;;;;;;-144.99;100.00;52232.03;4986090;28;20415;-68
2023/09/06 05:31:26;;;;;;;;;;;;;;;-144.99;100.00;52195.34;4988814;28;20054;-69
2023/09/06 05:33:52;;;;;;;;;;;;;;;-144.99;100.00;52215.75;4992404;28;20012;-69
2023/09/06 05:36:20;;;;;;;;;;;;;;;-144.99;100.00;52236.13;4985188;28;20023;-68
2023/09/06 05:38:46;;;;;;;;;;;;;;;-144.99;100.00;52211.66;4986570;28;19981;-68
2023/09/06 05:41:14;;;;;;;;;;;;;;;-144.99;100.00;52195.34;4993077;28;20015;-68
2023/09/06 05:43:40;;;;;;;;;;;;;;;-144.99;100.00;52195.34;4983954;28;20039;-68
2023/09/06 05:46:07;;;;;;;;;;;;;;;-144.99;100.00;52199.44;4988252;28;20025;-69
2023/09/06 05:48:34;;;;;;;;;;;;;;;-144.99;100.00;52256.50;4987226;28;20389;-68
2023/09/06 05:51:00;;;;;;;;;;;;;;;-144.99;100.00;52213.69;4987098;28;19940;-68
2023/09/06 05:53:28;;;;;;;;;;;;;;;-144.99;100.00;52195.34;4989020;28;19988;-68
2023/09/06 05:55:57;;;;;;;;;;;;;;;-144.99;100.00;52211.66;4990030;28;20322;-68
2023/09/06 05:58:24;;;;;;;;;;;;;;;-144.99;100.00;52183.13;4979977;28;19990;-68
2023/09/06 06:00:53;;;;;;;;;;;;;;;-144.99;100.00;52211.66;4984228;28;19958;-68
2023/09/06 06:03:19;;;;;;;;;;;;;;;-144.99;100.00;52232.03;4983823;28;19964;-68
2023/09/06 06:05:46;;;;;;;;;;;;;;;-144.99;100.00;52174.97;4985949;28;19940;-68
2023/09/06 06:08:13;;;;;;;;;;;;;;;-144.99;100.00;52158.66;4982790;28;19947;-68
2023/09/06 06:10:40;;;;;;;;;;;;;;;-144.99;100.00;52211.66;4984539;28;19965;-68
2023/09/06 06:13:08;;;;;;;;;;;;;;;-144.99;100.00;52221.84;4980958;28;20445;-68
2023/09/06 06:15:36;;;;;;;;;;;;;;;-144.99;99.92;52211.66;4984611;28;19945;-68
2023/09/06 06:18:02;;;;;;;;;;;;;;;-144.99;99.32;52191.28;4984923;28;20019;-67
2023/09/06 06:20:29;;;;;;;;;;;;;;;-144.99;99.31;52130.13;4977572;28;20407;-69
2023/09/06 06:22:55;;;;;;;;;;;;;;;-144.99;98.96;52174.97;4981611;28;20065;-69
2023/09/06 06:25:22;;;;;;;;;;;;;;;-144.99;98.55;52205.53;4986417;28;19984;-69
2023/09/06 06:27:51;;;;;;;;;;;;;;;-144.99;98.27;52221.84;4985844;28;20995;-69
2023/09/06 06:30:18;;;;;;;;;;;;;;;-144.99;98.16;52223.88;4982321;28;20043;-69
2023/09/06 06:32:46;;;;;;;;;;;;;;;-144.99;97.79;52154.59;4974811;28;19964;-69
2023/09/06 06:35:13;;;;;;;;;;;;;;;-144.99;97.29;52203.50;4980861;28;19981;-69
2023/09/06 06:37:39;;;;;;;;;;;;;;;-144.99;96.64;52183.13;4984802;28;19965;-69
2023/09/06 06:40:06;;;;;;;;;;;;;;;-144.99;96.19;52170.91;4986237;28;20006;-69
2023/09/06 06:42:33;;;;;;;;;;;;;;;-144.99;95.76;52170.91;4986086;28;20063;-69
2023/09/06 06:44:59;;;;;;;;;;;;;;;-144.99;95.56;52154.59;4988723;28;19936;-69
2023/09/06 06:47:26;;;;;;;;;;;;;;;-144.99;95.14;52227.97;4990632;28;19946;-69
2023/09/06 06:49:55;;;;;;;;;;;;;;;-144.99;94.52;52187.19;4639798;28;9999805;-69
2023/09/06 06:52:21;;;;;;;;;;;;;;;-144.99;94.42;52183.13;4990918;28;19966;-70
2023/09/06 06:54:48;;;;;;;;;;;;;;;-144.99;94.38;52134.22;4991420;28;20038;-69
2023/09/06 06:57:14;;;;;;;;;;;;;;;-144.99;94.54;52191.28;4986363;28;20475;-69
2023/09/06 06:59:41;;;;;;;;;;;;;;;-144.99;94.06;52183.13;4980384;28;20532;-68
2023/09/06 07:02:07;;;;;;;;;;;;;;;-144.99;93.35;52174.97;4985905;28;20007;-68
2023/09/06 07:04:33;;;;;;;;;;;;;;;-144.99;92.84;52174.97;4990521;28;19994;-69
2023/09/06 07:07:01;;;;;;;;;;;;;;;-144.99;92.46;52132.19;4986434;28;19970;-68
2023/09/06 07:09:28;;;;;;;;;;;;;;;-144.99;91.82;52130.13;4988861;28;20021;-68
2023/09/06 07:11:54;;;;;;;;;;;;;;;-144.99;91.51;52162.75;4982134;28;20011;-69
2023/09/06 07:14:21;;;;;;;;;;;;;;;-144.99;91.23;52150.53;4988217;28;20470;-69
2023/09/06 07:16:48;;;;;;;;;;;;;;;-144.99;90.84;52174.97;4983105;28;19991;-69
2023/09/06 07:19:14;;;;;;;;;;;;;;;-144.99;89.92;52187.19;4991737;28;20383;-68
2023/09/06 07:21:41;;;;;;;;;;;;;;;-144.99;89.53;52142.38;4988257;28;19926;-68
2023/09/06 07:24:13;;;;;;;;;;;;;;;-144.99;89.24;52170.91;4998326;28;19967;-69
2023/09/06 07:26:39;;;;;;;;;;;;;;;-144.99;89.36;52170.91;4996690;28;20035;-69
2023/09/06 07:29:06;;;;;;;;;;;;;;;-144.99;89.18;52158.66;4989319;28;20395;-69
2023/09/06 07:31:32;;;;;;;;;;;;;;;-144.99;89.01;52146.44;4987418;28;20000;-69
2023/09/06 07:33:59;;;;;;;;;;;;;;;-144.99;88.44;52158.66;4993510;28;20010;-69
2023/09/06 07:36:25;;;;;;;;;;;;;;;-144.99;87.93;52158.66;4989874;28;19964;-70
2023/09/06 07:38:54;;;;;;;;;;;;;;;-144.99;87.01;52146.44;4988587;28;19954;-68
2023/09/06 07:41:22;;;;;;;;;;;;;;;-144.99;85.89;52126.06;4988845;28;19971;-68
2023/09/06 07:43:49;;;;;;;;;;;;;;;-144.99;85.37;52128.09;4985404;28;20366;-68
2023/09/06 07:46:15;;;;;;;;;;;;;;;-144.99;84.71;52097.53;4988586;28;19965;-68
2023/09/06 07:48:42;;;;;;;;;;;;;;;-144.99;84.15;52130.13;4991966;28;20374;-68
2023/09/06 07:51:08;;;;;;;;;;;;;;;-144.99;83.92;52085.31;4993718;28;19952;-71
2023/09/06 07:53:35;;;;;;;;;;;;;;;-144.99;83.62;52130.13;4988176;28;20062;-68
2023/09/06 07:56:01;;;;;;;;;;;;;;;-144.99;83.73;52146.44;4990472;28;20029;-68
2023/09/06 07:58:29;;;;;;;;;;;;;;;-144.99;83.26;52166.81;4991130;28;20414;-69
2023/09/06 08:00:57;;;;;;;;;;;;;;;-144.99;83.17;52093.44;4991342;28;19964;-69
2023/09/06 08:03:25;;;;;;;;;;;;;;;-144.99;82.25;52134.22;4993004;28;19963;-68
2023/09/06 08:05:52;;;;;;;;;;;;;;;-144.99;82.51;52130.13;4991482;28;19966;-69
2023/09/06 08:08:18;;;;;;;;;;;;;;;-144.99;81.87;52126.06;4994601;28;20052;-69
2023/09/06 08:10:46;;;;;;;;;;;;;;;-144.99;81.37;52146.44;4993962;28;19981;-68
2023/09/06 08:13:12;;;;;;;;;;;;;;;-144.99;81.24;52091.41;4991795;28;20036;-69
2023/09/06 08:15:40;;;;;;;;;;;;;;;-144.99;80.61;52101.59;4988205;28;19983;-69
2023/09/06 08:18:08;;;;;;;;;;;;;;;-144.99;79.95;52134.22;4993411;28;19984;-69
2023/09/06 08:20:34;;;;;;;;;;;;;;;-144.99;79.79;52117.91;4989191;28;19963;-69
2023/09/06 08:23:01;;;;;;;;;;;;;;;-144.99;79.43;52097.53;4991042;28;20683;-69
2023/09/06 08:25:27;;;;;;;;;;;;;;;-144.99;79.53;52113.84;4985487;28;20612;-69
2023/09/06 08:27:54;;;;;;;;;;;;;;;-144.99;80.00;52119.94;4992475;28;20431;-69
2023/09/06 08:30:21;;;;;;;;;;;;;;;-144.99;79.63;52097.53;4992777;28;19947;-69
2023/09/06 08:32:50;;;;;;;;;;;;;;;-144.99;78.42;52077.16;4992696;28;19961;-69
2023/09/06 08:35:18;;;;;;;;;;;;;;;-144.99;77.83;52077.16;4989657;28;19952;-70
2023/09/06 08:37:45;;;;;;;;;;;;;;;-144.99;76.77;52089.38;4990468;28;20020;-70
2023/09/06 08:40:12;;;;;;;;;;;;;;;-144.99;76.59;52077.16;4988006;28;19967;-70
2023/09/06 08:42:39;;;;;;;;;;;;;;;-144.99;76.27;52058.81;4995277;28;19956;-70
2023/09/06 08:45:08;;;;;;;;;;;;;;;-144.99;75.63;52054.72;4987866;28;20511;-70
2023/09/06 08:47:37;;;;;;;;;;;;;;;-144.99;75.58;52073.06;4988140;28;20072;-70
2023/09/06 08:50:08;;;;;;;;;;;;;;;-144.99;74.94;52097.53;4987490;28;20325;-70
2023/09/06 08:52:36;;;;;;;;;;;;;;;-144.99;74.22;52056.78;4990094;28;19975;-70
2023/09/06 08:55:03;;;;;;;;;;;;;;;-144.99;74.17;52101.59;4994743;28;19950;-70
2023/09/06 08:57:29;;;;;;;;;;;;;;;-144.99;74.57;52085.31;4987051;28;19956;-70
2023/09/06 08:59:57;;;;;;;;;;;;;;;-144.99;74.24;52048.63;4991240;28;19947;-70
2023/09/06 09:02:23;;;;;;;;;;;;;;;-144.99;74.08;52085.31;4994042;28;20331;-70
2023/09/06 09:04:50;;;;;;;;;;;;;;;-144.99;72.60;52064.91;4988726;28;19943;-70
2023/09/06 09:07:18;;;;;;;;;;;;;;;-144.99;71.85;52044.53;4989847;28;19940;-70
2023/09/06 09:09:58;;;;;;;;;;;;;;;-144.99;71.30;52030.28;4988555;28;19965;-70
2023/09/06 09:12:25;;;;;;;;;;;;;;;-144.99;70.89;52040.47;4994171;28;19974;-70
2023/09/06 09:14:54;;;;;;;;;;;;;;;-144.99;69.44;52036.38;4987687;28;19956;-70
2023/09/06 09:17:21;;;;;;;;;;;;;;;-144.99;69.19;52020.09;4979009;28;20508;-69
2023/09/06 09:19:49;;;;;;;;;;;;;;;-144.99;69.02;51991.56;4985316;28;20254;-69
2023/09/06 09:22:15;;;;;;;;;;;;;;;-144.99;68.52;52036.38;4979940;28;20372;-70
2023/09/06 09:24:43;;;;;;;;;;;;;;;-144.99;67.72;52020.09;4981380;28;19972;-69
2023/09/06 09:27:10;;;;;;;;;;;;;;;-144.99;67.64;52024.16;4959185;28;20434;-70
2023/09/06 09:29:37;;;;;;;;;;;;;;;-144.99;66.77;51989.50;4980118;28;19968;-70
2023/09/06 09:32:04;;;;;;;;;;;;;;;-144.99;66.04;52016.00;4981492;28;20026;-70
2023/09/06 09:34:31;;;;;;;;;;;;;;;-144.99;65.32;52016.00;4990728;28;19949;-70
2023/09/06 09:36:58;;;;;;;;;;;;;;;-144.99;64.37;51995.63;4992801;28;19966;-70
2023/09/06 09:39:26;;;;;;;;;;;;;;;-144.99;64.04;51995.63;4990598;28;19945;-71
2023/09/06 09:41:57;;;;;;;;;;;;;;;-144.99;63.91;52003.78;4993412;28;19992;-71
2023/09/06 09:44:23;;;;;;;;;;;;;;;-144.99;63.69;51975.25;4984247;28;20005;-71
2023/09/06 09:46:50;;;;;;;;;;;;;;;-144.99;63.05;51975.25;4987815;28;20507;-71
2023/09/06 09:49:18;;;;;;;;;;;;;;;-144.99;62.15;51999.69;4986689;28;19997;-71
2023/09/06 09:51:45;;;;;;;;;;;;;;;-144.99;62.27;51977.28;4984019;28;20006;-71
2023/09/06 09:54:14;;;;;;;;;;;;;;;-144.99;61.15;51987.47;4995055;28;19967;-71
2023/09/06 09:56:41;;;;;;;;;;;;;;;-144.99;60.53;51952.81;4988668;28;19962;-71
2023/09/06 09:59:10;;;;;;;;;;;;;;;-144.99;60.66;51991.56;4988813;28;19944;-70
2023/09/06 10:01:39;;;;;;;;;;;;;;;-144.99;60.50;51950.78;4989044;28;20574;-70
2023/09/06 10:04:06;;;;;;;;;;;;;;;-144.99;60.78;51999.69;4986947;28;19971;-70
2023/09/06 10:06:33;;;;;;;;;;;;;;;-144.99;60.55;51985.44;4992965;28;20048;-71
2023/09/06 10:09:01;;;;;;;;;;;;;;;-144.99;59.90;51958.94;4987605;28;19969;-71
2023/09/06 10:11:27;;;;;;;;;;;;;;;-144.99;59.41;51946.72;4991598;28;20398;-71
2023/09/06 10:13:54;;;;;;;;;;;;;;;-144.99;58.61;51946.72;4982645;28;20080;-71
2023/09/06 10:16:22;;;;;;;;;;;;;;;-144.99;58.34;51930.41;4988185;28;19999;-71
2023/09/06 10:18:49;;;;;;;;;;;;;;;-144.99;57.55;51958.94;4989972;28;19975;-73
2023/09/06 10:21:16;;;;;;;;;;;;;;;-144.99;57.84;51926.34;4987035;28;20071;-70
2023/09/06 10:23:44;;;;;;;;;;;;;;;-144.99;57.72;51946.72;4991107;28;19953;-70
2023/09/06 10:26:10;;;;;;;;;;;;;;;-144.99;57.56;51897.81;4987474;28;19968;-71
2023/09/06 10:28:37;;;;;;;;;;;;;;;-144.99;56.85;51897.81;4990737;28;19951;-71
2023/09/06 10:31:08;;;;;;;;;;;;;;;-144.99;55.93;51891.69;4981073;28;19962;-71
2023/09/06 10:33:55;;;;;;;;;;;;;;;-144.99;56.02;51852.97;4989924;28;19961;-71
2023/09/06 10:36:27;;;;;;;;;;;;;;;-144.99;55.61;51848.91;4983324;28;19946;-71
2023/09/06 10:39:14;;;;;;;;;;;;;;;-144.99;55.56;51836.66;4988488;28;20114;-71
2023/09/06 10:42:00;;;;;;;;;;;;;;;-144.99;55.36;51863.16;4989551;28;20454;-70
2023/09/06 10:44:29;;;;;;;;;;;;;;;-144.99;55.84;51836.66;4995037;28;19981;-71
2023/09/06 10:46:56;;;;;;;;;;;;;;;-144.99;55.63;51844.81;4993024;28;19960;-70
2023/09/06 10:49:25;;;;;;;;;;;;;;;-144.99;55.96;51810.16;4993016;28;19956;-71
2023/09/06 10:52:01;;;;;;;;;;;;;;;-144.99;55.08;51828.50;4994563;28;19950;-73
2023/09/06 10:54:35;;;;;;;;;;;;;;;-144.99;54.53;51808.13;4990669;28;20041;-71
2023/09/06 10:57:05;;;;;;;;;;;;;;;-144.99;54.67;51787.75;4986392;28;20079;-72
2023/09/06 10:59:32;;;;;;;;;;;;;;;-144.99;54.48;51773.50;4990418;28;20007;-72
2023/09/06 11:02:07;;;;;;;;;;;;;;;-144.99;54.38;51767.38;4986841;28;20009;-71
2023/09/06 11:04:35;;;;;;;;;;;;;;;-144.99;53.91;51808.13;4996247;28;19957;-71
2023/09/06 11:07:09;;;;;;;;;;;;;;;-144.99;54.23;51751.06;4987883;28;19944;-71
2023/09/06 11:09:38;;;;;;;;;;;;;;;-144.99;53.62;51779.59;4986359;28;19963;-71
2023/09/06 11:12:05;;;;;;;;;;;;;;;-144.99;53.82;51797.94;4988815;28;19985;-71
2023/09/06 11:14:31;;;;;;;;;;;;;;;-144.99;53.85;51763.31;4989203;28;19976;-71
2023/09/06 11:16:58;;;;;;;;;;;;;;;-144.99;53.23;51771.44;4989505;28;19979;-71
2023/09/06 11:19:28;;;;;;;;;;;;;;;-144.99;53.76;51812.22;4985208;28;20057;-71
2023/09/06 11:22:06;;;;;;;;;;;;;;;-144.99;53.33;51755.16;4995045;28;20021;-72
2023/09/06 11:24:32;;;;;;;;;;;;;;;-144.99;52.53;51771.44;4987752;28;19946;-73
2023/09/06 11:27:03;;;;;;;;;;;;;;;-144.99;52.43;51742.91;4997920;28;19948;-70
2023/09/06 11:29:30;;;;;;;;;;;;;;;-144.99;52.44;51714.41;4988858;28;19951;-70
2023/09/06 11:32:08;;;;;;;;;;;;;;;-144.99;52.42;51738.84;4994877;28;20029;-70
2023/09/06 11:34:41;;;;;;;;;;;;;;;-144.99;52.46;51742.91;4990081;28;19946;-70
2023/09/06 11:37:10;;;;;;;;;;;;;;;-144.99;52.12;51757.19;4988557;28;19965;-70
2023/09/06 11:39:39;;;;;;;;;;;;;;;-144.99;52.04;51740.88;4987747;28;19968;-70
2023/09/06 11:42:08;;;;;;;;;;;;;;;-144.99;52.85;51775.53;4995143;28;19930;-70
2023/09/06 11:44:37;;;;;;;;;;;;;;;-144.99;52.79;51802.03;4995319;28;20293;-70
2023/09/06 11:47:06;;;;;;;;;;;;;;;-144.99;52.38;51779.59;4990165;28;19944;-70
2023/09/06 11:49:34;;;;;;;;;;;;;;;-144.99;53.23;51771.44;4995740;28;20014;-71
2023/09/06 11:52:04;;;;;;;;;;;;;;;-144.99;52.50;51761.25;4990315;28;19995;-71
2023/09/06 11:54:32;;;;;;;;;;;;;;;-144.99;52.69;51742.91;4992846;28;19952;-71
2023/09/06 11:56:59;;;;;;;;;;;;;;;-144.99;52.95;51777.56;4986791;28;20130;-71
2023/09/06 11:59:28;;;;;;;;;;;;;;;-144.99;52.67;51730.69;4985874;28;19950;-70
2023/09/06 12:01:58;;;;;;;;;;;;;;;-144.99;52.77;51759.22;4987740;28;19958;-70
2023/09/06 12:04:28;;;;;;;;;;;;;;;-144.99;51.83;51742.91;4991191;28;19996;-70
2023/09/06 12:06:56;;;;;;;;;;;;;;;-144.99;51.50;51730.69;4989184;28;19977;-70
2023/09/06 12:09:23;;;;;;;;;;;;;;;-144.99;52.01;51769.41;4986919;28;19944;-70
2023/09/06 12:11:52;;;;;;;;;;;;;;;-144.99;52.03;51742.91;4988322;28;20407;-70
2023/09/06 12:14:18;;;;;;;;;;;;;;;-144.99;51.97;51734.78;4985851;28;19957;-70
2023/09/06 12:16:45;;;;;;;;;;;;;;;-144.99;51.48;51747.00;4989028;28;19942;-70
2023/09/06 12:19:12;;;;;;;;;;;;;;;-144.99;51.81;51759.22;4990155;28;19948;-70
2023/09/06 12:21:38;;;;;;;;;;;;;;;-144.99;51.46;51714.41;4990200;28;19958;-71
2023/09/06 12:24:05;;;;;;;;;;;;;;;-144.99;51.33;51722.53;4989009;28;20003;-71
2023/09/06 12:26:33;;;;;;;;;;;;;;;-144.99;50.65;51691.97;4987319;28;20422;-71
2023/09/06 12:29:00;;;;;;;;;;;;;;;-144.99;50.80;51677.72;4991606;28;20390;-71